Los Angeles, CA (90002)

11:14 PM PDT on September 17, 2014 (GMT -0700)
Northrop-Hawthorne Municipal | Change Station
CLOSE
Current Station
Airport
Location: Hawthorne,
Elevation: 62 ft
Nearby Weather Stations
Active Advisory: Beach Hazard Statement Active Notice: Record Report

Elev 62 ft 33.92 °N, 118.34 °W | Updated 21 minutes ago

Clear
Clear
72 °F
Feels Like 72 °F
N
10
Wind Variable Wind from West

Today
High -- | Low -- °F
--% Chance of Precip.
Yesterday
High -- | Low -- °F
Precip. -- in
6:37 AM 6:56 PM
Waning Crescent, 30% visible
Pressure 29.78 in
Visibility 10.0 miles
Clouds Clear
Dew Point 59 °F
Humidity 64%
Rainfall 0.00 in
Snow Depth 1 in , 0 in , 0 in
UV 0 out of 12
Pollen 6.90 out of 12
Ozone Good
Flu Activity Not available.
METAR KHHR 180553Z AUTO 26009KT 10SM CLR 22/15 A2978 RMK AO2 SLP082 T02220150 10283 20222 51016

More Conditions Fewer Conditions

Pressure 29.78 in
Visibility 10.0 miles
Clouds Clear
Dew Point 59 °F
Humidity 64%
Rainfall 0.00 in
Snow Depth 1 in , 0 in , 0 in
UV 0 out of 12
Pollen 6.90 out of 12
Ozone Good
Flu Activity Not available.
METAR KHHR 180553Z AUTO 26009KT 10SM CLR 22/15 A2978 RMK AO2 SLP082 T02220150 10283 20222 51016

More Conditions Fewer Conditions

10-Day Weather Forecast

Almanac

Astronomy

Sep. 17, 2014 Rise Set
Actual Time 6:37 AM PDT 6:56 PM PDT
Civil Twilight 6:12 AM PDT 7:21 PM PDT
Nautical Twilight 5:43 AM PDT 7:50 PM PDT
Astronomical Twilight 5:13 AM PDT 8:20 PM PDT
Moon 12:53 AM PDT (9/17) 2:58 PM PDT (9/17)
Length of Visible Light 13h 08m
Length of Day
12h 18m
Tomorrow will be 2m 5s shorter.
Waning Crescent, 30% of the Moon is Illuminated
Sep 18
Waning Crescent
Sep 24
New
Oct 1
First Quarter
Oct 8
Full
Oct 15
Last Quarter

Yesterday's Extremes

State Highs State Lows

Community

WunderPhotos

Upload Photos

1,754,298 photos uploaded!

Nearby

Air Quality

  Air Quality AQ Index Pollutant
Yesterday Good
OZONE
Current Good
OZONE
Thursday Good
PM10
Thursday Good
OZONE
Thursday Good
CO
Thursday Good
NO2

Snow Depth

Station Depth Elevation
Adin Mountain 1 in 6200 ft
Echo Peak 0 in 7800 ft
Tahoe City Cross 0 in 6750 ft
Monitor Pass 1 in 8350 ft
Leavitt Meadows 1 in 7200 ft

Earthquake Activity

City Distance Mag. Time & Date
La Quinta, California 107 miles 2.7 8:59 PM PDT
2014-09-15
Minimum magnitude displayed is 2.5.

Coastal Water Temperatures

Place Temperature
Santa Monica Pier 72.0 °F
Los Angeles, CA 68.0 °F
La Jolla, CA 73.0 °F

Nearby Weather Stations